createdAt,value
2023-04-26T00:00:20.906Z,98236.31
2023-04-26T00:01:15.086Z,98238.08
2023-04-26T00:01:48.283Z,98236.21
2023-04-26T00:02:22.265Z,98234.85
2023-04-26T00:02:56.047Z,98232.30
2023-04-26T00:03:29.484Z,98230.59
2023-04-26T00:04:03.856Z,98232.48
2023-04-26T00:04:37.761Z,98232.39
2023-04-26T00:05:11.426Z,98227.98
2023-04-26T00:05:44.866Z,98229.02
2023-04-26T00:06:18.085Z,98232.55
2023-04-26T00:06:51.248Z,98235.80
2023-04-26T00:07:25.428Z,98233.48
2023-04-26T00:07:59.060Z,98235.95
2023-04-26T00:08:32.347Z,98235.05
2023-04-26T00:09:05.744Z,98235.65
2023-04-26T00:09:41.900Z,98233.91
2023-04-26T00:10:15.082Z,98233.64
2023-04-26T00:10:48.275Z,98232.64
2023-04-26T00:11:21.586Z,98234.33
2023-04-26T00:11:54.808Z,98235.41
2023-04-26T00:12:28.134Z,98235.00
2023-04-26T00:13:01.377Z,98235.25
2023-04-26T00:13:34.571Z,98235.05
2023-04-26T00:14:07.828Z,98234.77
2023-04-26T00:14:40.987Z,98237.38
2023-04-26T00:15:14.152Z,98236.52
2023-04-26T00:15:47.413Z,98235.32
2023-04-26T00:16:21.244Z,98233.91
2023-04-26T00:16:54.620Z,98236.01
2023-04-26T00:17:27.794Z,98236.73
2023-04-26T00:18:00.923Z,98234.28
2023-04-26T00:18:34.361Z,98234.44
2023-04-26T00:19:07.577Z,98234.41
2023-04-26T00:19:41.242Z,98239.42
2023-04-26T00:20:14.791Z,98238.38
2023-04-26T00:20:48.031Z,98237.61
2023-04-26T00:21:21.577Z,98237.36
2023-04-26T00:21:54.785Z,98237.22
2023-04-26T00:22:28.167Z,98238.83
2023-04-26T00:23:01.377Z,98242.05
2023-04-26T00:23:37.006Z,98241.02
2023-04-26T00:24:10.185Z,98239.41
2023-04-26T00:24:43.546Z,98242.73
2023-04-26T00:25:16.650Z,98241.34
2023-04-26T00:25:49.868Z,98242.66
2023-04-26T00:26:22.989Z,98242.86
2023-04-26T00:26:56.252Z,98242.34
2023-04-26T00:27:29.318Z,98239.60
2023-04-26T00:28:02.804Z,98242.81
2023-04-26T00:28:36.024Z,98241.95
2023-04-26T00:29:09.332Z,98239.09
2023-04-26T00:29:42.549Z,98242.59
2023-04-26T00:30:15.742Z,98243.10
2023-04-26T00:30:49.228Z,98242.42
2023-04-26T00:31:22.453Z,98247.54
2023-04-26T00:31:55.682Z,98240.66
2023-04-26T00:32:28.884Z,98246.00
2023-04-26T00:33:02.095Z,98246.48
2023-04-26T00:33:35.351Z,98247.66
2023-04-26T00:34:08.516Z,98242.60
2023-04-26T00:34:41.723Z,98242.41
2023-04-26T00:35:15.004Z,98243.79
2023-04-26T00:35:48.179Z,98246.58
2023-04-26T00:36:21.319Z,98242.80
2023-04-26T00:36:54.524Z,98244.45
2023-04-26T00:37:27.743Z,98245.09
2023-04-26T00:38:01.201Z,98250.67
2023-04-26T00:38:34.244Z,98245.41
2023-04-26T00:39:07.516Z,98246.27
2023-04-26T00:39:40.818Z,98246.62
2023-04-26T00:40:14.181Z,98244.75
2023-04-26T00:40:47.451Z,98242.98
2023-04-26T00:41:20.649Z,98244.81
2023-04-26T00:41:54.076Z,98247.71
2023-04-26T00:42:27.559Z,98244.41
2023-04-26T00:43:00.801Z,98246.90
2023-04-26T00:43:34.038Z,98248.83
2023-04-26T00:44:07.610Z,98246.90
2023-04-26T00:44:40.984Z,98245.58
2023-04-26T00:45:14.247Z,98244.69
2023-04-26T00:45:47.416Z,98246.86
2023-04-26T00:46:21.411Z,98245.75
2023-04-26T00:46:54.889Z,98245.23
2023-04-26T00:47:30.052Z,98243.81
2023-04-26T00:48:04.037Z,98247.52
2023-04-26T00:48:37.820Z,98247.28
2023-04-26T00:49:14.840Z,98244.50
2023-04-26T00:49:48.007Z,98246.15
2023-04-26T00:50:21.582Z,98246.95
2023-04-26T00:50:55.098Z,98244.81
2023-04-26T00:51:28.604Z,98243.77
2023-04-26T00:52:02.078Z,98246.91
2023-04-26T00:52:35.838Z,98245.67
2023-04-26T00:53:09.597Z,98244.58
2023-04-26T00:53:43.284Z,98246.17
2023-04-26T00:54:16.639Z,98247.02
2023-04-26T00:54:49.956Z,98244.90
2023-04-26T00:55:23.706Z,98246.89
2023-04-26T00:55:57.877Z,98245.45
2023-04-26T00:56:32.352Z,98248.54
2023-04-26T00:57:07.353Z,98248.14
2023-04-26T00:57:41.106Z,98245.23
2023-04-26T00:58:14.416Z,98246.97
2023-04-26T00:58:47.556Z,98246.98
2023-04-26T00:59:21.530Z,98249.35
2023-04-26T00:59:54.769Z,98247.62
2023-04-26T01:00:28.029Z,98246.98
2023-04-26T01:01:01.353Z,98248.18
2023-04-26T01:01:35.744Z,98247.46
2023-04-26T01:02:09.520Z,98245.57
2023-04-26T01:02:43.229Z,98246.98
2023-04-26T01:03:17.512Z,98245.53
2023-04-26T01:03:50.968Z,98246.22
2023-04-26T01:04:27.683Z,98247.98
2023-04-26T01:05:01.113Z,98245.82
2023-04-26T01:05:34.311Z,98245.59
2023-04-26T01:06:07.440Z,98244.39
2023-04-26T01:06:41.704Z,98245.30
2023-04-26T01:07:14.860Z,98246.83
2023-04-26T01:07:48.304Z,98245.49
2023-04-26T01:08:22.528Z,98246.02
2023-04-26T01:08:57.494Z,98243.89
2023-04-26T01:09:32.050Z,98246.15
2023-04-26T01:10:06.292Z,98243.73
2023-04-26T01:10:40.321Z,98243.28
2023-04-26T01:11:14.239Z,98243.28
2023-04-26T01:11:47.512Z,98243.48
2023-04-26T01:12:21.026Z,98241.03
2023-04-26T01:12:54.641Z,98241.30
2023-04-26T01:13:29.092Z,98241.54
2023-04-26T01:14:02.273Z,98243.27
2023-04-26T01:14:37.053Z,98243.30
2023-04-26T01:15:10.442Z,98237.79
2023-04-26T01:15:45.779Z,98238.80
2023-04-26T01:16:20.200Z,98236.59
2023-04-26T01:16:53.401Z,98237.52
2023-04-26T01:17:26.722Z,98239.37
2023-04-26T01:18:00.120Z,98243.38
2023-04-26T01:18:33.315Z,98241.96
2023-04-26T01:19:12.662Z,98241.33
2023-04-26T01:19:49.216Z,98243.90
2023-04-26T01:20:22.468Z,98245.36
2023-04-26T01:20:57.221Z,98242.77
2023-04-26T01:21:30.285Z,98243.05
2023-04-26T01:22:04.439Z,98245.42
2023-04-26T01:22:37.602Z,98245.17
2023-04-26T01:23:11.898Z,98243.11
2023-04-26T01:23:44.954Z,98247.09
2023-04-26T01:24:18.157Z,98243.73
2023-04-26T01:24:51.867Z,98244.27
2023-04-26T01:25:24.983Z,98240.21
2023-04-26T01:25:58.205Z,98240.90
2023-04-26T01:26:32.365Z,98243.42
2023-04-26T01:27:05.546Z,98239.96
2023-04-26T01:27:38.909Z,98238.56
2023-04-26T01:28:12.162Z,98240.89
2023-04-26T01:28:47.025Z,98240.89
2023-04-26T01:29:21.865Z,98240.45
2023-04-26T01:29:55.072Z,98240.61
2023-04-26T01:30:28.274Z,98243.63
2023-04-26T01:31:01.502Z,98247.27
2023-04-26T01:31:34.730Z,98245.86
2023-04-26T01:32:07.966Z,98247.52
2023-04-26T01:32:41.070Z,98244.35
2023-04-26T01:33:15.978Z,98244.15
2023-04-26T01:33:49.055Z,98244.21
2023-04-26T01:34:22.059Z,98246.39
2023-04-26T01:34:55.295Z,98248.10
2023-04-26T01:35:28.501Z,98246.71
2023-04-26T01:36:01.954Z,98246.67
2023-04-26T01:36:35.253Z,98247.34
2023-04-26T01:37:08.323Z,98246.80
2023-04-26T01:37:41.506Z,98247.48
2023-04-26T01:38:14.931Z,98250.24
2023-04-26T01:38:47.980Z,98254.78
2023-04-26T01:39:21.443Z,98252.17
2023-04-26T01:39:54.546Z,98251.16
2023-04-26T01:40:27.650Z,98249.57
2023-04-26T01:41:00.835Z,98250.99
2023-04-26T01:41:34.015Z,98251.33
2023-04-26T01:42:07.341Z,98248.91
2023-04-26T01:42:40.497Z,98248.19
2023-04-26T01:43:15.674Z,98246.88
2023-04-26T01:43:48.794Z,98249.64
2023-04-26T01:44:21.892Z,98248.84
2023-04-26T01:44:55.068Z,98251.84
2023-04-26T01:45:29.411Z,98249.00
2023-04-26T01:46:02.919Z,98252.02
2023-04-26T01:46:36.212Z,98252.61
2023-04-26T01:47:09.346Z,98250.61
2023-04-26T01:47:42.519Z,98252.77
2023-04-26T01:48:15.745Z,98249.58
2023-04-26T01:48:48.798Z,98249.64
2023-04-26T01:49:22.060Z,98251.41
2023-04-26T01:49:55.223Z,98246.03
2023-04-26T01:50:28.537Z,98249.40
2023-04-26T01:51:01.756Z,98248.08
2023-04-26T01:51:34.938Z,98247.45
2023-04-26T01:52:08.169Z,98245.52
2023-04-26T01:52:41.320Z,98245.73
2023-04-26T01:53:14.454Z,98247.20
2023-04-26T01:53:47.617Z,98247.59
2023-04-26T01:54:21.616Z,98249.67
2023-04-26T01:54:54.693Z,98249.07
2023-04-26T01:55:27.915Z,98249.59
2023-04-26T01:56:02.943Z,98246.61
2023-04-26T01:56:36.234Z,98244.90
2023-04-26T01:57:09.667Z,98247.90
2023-04-26T01:57:42.848Z,98247.41
2023-04-26T01:58:17.063Z,98246.36
2023-04-26T01:58:50.556Z,98247.73
2023-04-26T01:59:23.900Z,98244.71
2023-04-26T01:59:57.076Z,98248.94
2023-04-26T02:00:30.246Z,98245.65
2023-04-26T02:01:09.992Z,98245.96
2023-04-26T02:01:43.835Z,98245.73
2023-04-26T02:02:20.434Z,98242.98
2023-04-26T02:02:57.492Z,98245.06
2023-04-26T02:03:31.225Z,98241.40
2023-04-26T02:04:06.721Z,98246.48
2023-04-26T02:04:40.019Z,98244.77
2023-04-26T02:05:13.284Z,98246.88
2023-04-26T02:05:46.997Z,98244.67
2023-04-26T02:06:20.549Z,98250.79
2023-04-26T02:06:53.815Z,98247.81
2023-04-26T02:07:27.027Z,98252.17
2023-04-26T02:08:00.243Z,98250.05
2023-04-26T02:08:33.730Z,98246.97
2023-04-26T02:09:06.869Z,98250.67
2023-04-26T02:09:39.993Z,98250.73
2023-04-26T02:10:13.502Z,98249.58
2023-04-26T02:10:46.695Z,98249.78
2023-04-26T02:11:20.057Z,98250.10
2023-04-26T02:11:53.343Z,98250.21
2023-04-26T02:12:26.527Z,98247.28
2023-04-26T02:12:59.629Z,98246.71
2023-04-26T02:13:32.825Z,98246.29
2023-04-26T02:14:06.016Z,98247.52
2023-04-26T02:14:39.141Z,98244.05
2023-04-26T02:15:12.331Z,98245.64
2023-04-26T02:15:49.004Z,98246.54
2023-04-26T02:16:22.660Z,98244.80
2023-04-26T02:16:57.275Z,98246.52
2023-04-26T02:17:31.082Z,98243.27
2023-04-26T02:18:04.285Z,98243.83
2023-04-26T02:18:37.470Z,98245.80
2023-04-26T02:19:11.195Z,98242.14
2023-04-26T02:19:44.267Z,98244.30
2023-04-26T02:20:17.418Z,98243.81
2023-04-26T02:20:50.908Z,98240.39
2023-04-26T02:21:24.125Z,98242.64
2023-04-26T02:21:58.340Z,98242.48
2023-04-26T02:22:31.882Z,98243.17
2023-04-26T02:23:05.034Z,98242.61
2023-04-26T02:23:38.224Z,98239.83
2023-04-26T02:24:11.605Z,98240.32
2023-04-26T02:24:44.765Z,98244.86
2023-04-26T02:25:18.052Z,98242.89
2023-04-26T02:25:51.410Z,98245.58
2023-04-26T02:26:24.579Z,98244.60
2023-04-26T02:27:03.502Z,98250.38
2023-04-26T02:27:36.719Z,98247.93
2023-04-26T02:28:10.075Z,98247.65
2023-04-26T02:28:43.193Z,98245.64
2023-04-26T02:29:16.447Z,98247.05
2023-04-26T02:29:50.075Z,98250.51
2023-04-26T02:30:23.277Z,98248.45
2023-04-26T02:30:57.052Z,98248.94
2023-04-26T02:31:30.235Z,98247.61
2023-04-26T02:32:03.381Z,98246.73
2023-04-26T02:32:36.842Z,98244.92
2023-04-26T02:33:10.214Z,98248.45
2023-04-26T02:33:43.348Z,98248.09
2023-04-26T02:34:16.807Z,98244.80
2023-04-26T02:34:50.004Z,98248.17
2023-04-26T02:35:23.740Z,98249.14
2023-04-26T02:35:56.875Z,98254.08
2023-04-26T02:36:30.294Z,98253.88
2023-04-26T02:37:03.421Z,98250.26
2023-04-26T02:37:37.587Z,98248.89
2023-04-26T02:38:10.692Z,98250.48
2023-04-26T02:38:43.761Z,98254.64
2023-04-26T02:39:17.260Z,98250.85
2023-04-26T02:39:51.766Z,98249.80
2023-04-26T02:40:24.827Z,98251.08
2023-04-26T02:40:59.050Z,98247.82
2023-04-26T02:41:33.079Z,98250.08
2023-04-26T02:42:09.767Z,98246.05
2023-04-26T02:42:43.013Z,98247.73
2023-04-26T02:43:16.225Z,98248.93
2023-04-26T02:43:49.334Z,98247.77
2023-04-26T02:44:22.456Z,98245.88
2023-04-26T02:44:55.823Z,98249.66
2023-04-26T02:45:28.965Z,98247.23
2023-04-26T02:46:02.179Z,98247.56
2023-04-26T02:46:35.605Z,98248.13
2023-04-26T02:47:09.380Z,98251.06
2023-04-26T02:47:42.580Z,98250.20
2023-04-26T02:48:15.705Z,98252.95
2023-04-26T02:48:49.006Z,98253.98
2023-04-26T02:49:22.334Z,98254.88
2023-04-26T02:49:56.338Z,98253.08
2023-04-26T02:50:29.454Z,98253.63
2023-04-26T02:51:02.582Z,98252.39
2023-04-26T02:51:35.749Z,98255.58
2023-04-26T02:52:08.978Z,98252.71
2023-04-26T02:52:42.093Z,98258.06
2023-04-26T02:53:16.227Z,98255.69
2023-04-26T02:53:49.386Z,98256.37
2023-04-26T02:54:22.510Z,98257.09
2023-04-26T02:54:55.652Z,98261.20
2023-04-26T02:55:28.738Z,98262.83
2023-04-26T02:56:02.221Z,98259.60
2023-04-26T02:56:35.560Z,98264.42
2023-04-26T02:57:08.667Z,98263.38
2023-04-26T02:57:41.793Z,98265.83
2023-04-26T02:58:14.990Z,98264.42
2023-04-26T02:58:48.112Z,98266.74
2023-04-26T02:59:21.635Z,98270.11
2023-04-26T02:59:55.897Z,98268.82
2023-04-26T03:00:29.215Z,98268.45
2023-04-26T03:01:02.596Z,98267.38
2023-04-26T03:01:35.859Z,98270.17
2023-04-26T03:02:09.220Z,98270.70
2023-04-26T03:02:42.691Z,98269.39
2023-04-26T03:03:17.052Z,98271.11
2023-04-26T03:03:50.822Z,98269.66
2023-04-26T03:04:24.168Z,98271.91
2023-04-26T03:04:57.473Z,98271.19
2023-04-26T03:05:30.761Z,98275.56
2023-04-26T03:06:04.446Z,98277.77
2023-04-26T03:06:37.636Z,98275.05
2023-04-26T03:07:10.710Z,98274.67
2023-04-26T03:07:43.773Z,98273.67
2023-04-26T03:08:17.213Z,98274.91
2023-04-26T03:08:50.836Z,98276.84
2023-04-26T03:09:24.178Z,98276.20
2023-04-26T03:09:58.203Z,98276.67
2023-04-26T03:10:31.535Z,98279.25
2023-04-26T03:11:04.660Z,98278.90
2023-04-26T03:11:37.797Z,98279.77
2023-04-26T03:12:11.091Z,98280.34
2023-04-26T03:12:44.414Z,98281.73
2023-04-26T03:13:17.551Z,98283.42
2023-04-26T03:13:50.758Z,98284.15
2023-04-26T03:14:24.037Z,98284.87
2023-04-26T03:14:57.397Z,98284.50
2023-04-26T03:15:30.549Z,98288.45
2023-04-26T03:16:03.717Z,98284.80
2023-04-26T03:16:43.725Z,98286.20
2023-04-26T03:17:16.872Z,98285.55
2023-04-26T03:17:50.001Z,98288.20
2023-04-26T03:18:23.167Z,98288.91
2023-04-26T03:18:56.364Z,98288.63
2023-04-26T03:19:29.458Z,98290.61
2023-04-26T03:20:02.894Z,98287.88
2023-04-26T03:20:36.190Z,98289.84
2023-04-26T03:21:09.457Z,98292.29
2023-04-26T03:21:42.575Z,98291.77
2023-04-26T03:22:16.483Z,98292.52
2023-04-26T03:22:50.111Z,98292.41
2023-04-26T03:23:25.611Z,98296.50
2023-04-26T03:23:58.772Z,98295.49
2023-04-26T03:24:32.068Z,98299.04
2023-04-26T03:25:05.869Z,98299.55
2023-04-26T03:25:39.189Z,98296.11
2023-04-26T03:26:12.444Z,98301.48
2023-04-26T03:26:45.651Z,98300.95
2023-04-26T03:27:18.851Z,98301.33
2023-04-26T03:27:52.075Z,98300.56
2023-04-26T03:28:25.266Z,98301.48
2023-04-26T03:28:58.610Z,98303.23
2023-04-26T03:29:31.777Z,98303.33
2023-04-26T03:30:06.092Z,98304.27
2023-04-26T03:30:39.296Z,98305.05
2023-04-26T03:31:12.500Z,98304.77
2023-04-26T03:31:45.826Z,98306.46
2023-04-26T03:32:19.116Z,98303.02
2023-04-26T03:32:53.005Z,98305.14
2023-04-26T03:33:26.092Z,98303.33
2023-04-26T03:33:59.202Z,98306.77
2023-04-26T03:34:32.366Z,98304.58
2023-04-26T03:35:05.661Z,98305.54
2023-04-26T03:35:38.906Z,98310.55
2023-04-26T03:36:12.989Z,98309.96
2023-04-26T03:36:46.188Z,98311.81
2023-04-26T03:37:19.396Z,98313.02
2023-04-26T03:37:53.611Z,98313.19
2023-04-26T03:38:27.427Z,98315.73
2023-04-26T03:39:00.576Z,98313.08
2023-04-26T03:39:33.759Z,98314.61
2023-04-26T03:40:08.881Z,98316.51
2023-04-26T03:40:42.115Z,98317.36
2023-04-26T03:41:15.249Z,98316.83
2023-04-26T03:41:48.641Z,98314.71
2023-04-26T03:42:21.838Z,98320.77
2023-04-26T03:42:55.020Z,98319.27
2023-04-26T03:43:28.176Z,98315.98
2023-04-26T03:44:01.416Z,98319.59
2023-04-26T03:44:34.714Z,98319.04
2023-04-26T03:45:08.291Z,98319.95
2023-04-26T03:45:41.544Z,98318.55
2023-04-26T03:46:14.842Z,98324.41
2023-04-26T03:46:48.072Z,98322.58
2023-04-26T03:47:21.344Z,98326.21
2023-04-26T03:47:54.624Z,98325.86
2023-04-26T03:48:27.806Z,98325.08
2023-04-26T03:49:01.086Z,98327.93
2023-04-26T03:49:34.287Z,98330.54
2023-04-26T03:50:08.540Z,98326.10
2023-04-26T03:50:41.795Z,98326.63
2023-04-26T03:51:15.113Z,98331.36
2023-04-26T03:51:48.277Z,98328.06
2023-04-26T03:52:21.441Z,98327.27
2023-04-26T03:52:54.569Z,98329.49
2023-04-26T03:53:27.771Z,98328.73
2023-04-26T03:54:00.978Z,98331.70
2023-04-26T03:54:34.918Z,98333.59
2023-04-26T03:55:10.326Z,98330.14
2023-04-26T03:55:43.439Z,98331.19
2023-04-26T03:56:17.293Z,98330.69
2023-04-26T03:56:50.442Z,98329.66
2023-04-26T03:57:23.666Z,98332.59
2023-04-26T03:57:56.751Z,98332.55
2023-04-26T03:58:29.859Z,98335.45
2023-04-26T03:59:03.252Z,98331.80
2023-04-26T03:59:36.603Z,98332.48
2023-04-26T04:00:14.467Z,98331.92
2023-04-26T04:00:47.623Z,98332.56
2023-04-26T04:01:21.108Z,98331.55
2023-04-26T04:01:54.356Z,98335.84
2023-04-26T04:02:27.564Z,98334.50
2023-04-26T04:03:01.050Z,98332.50
2023-04-26T04:03:34.343Z,98331.62
2023-04-26T04:04:08.125Z,98335.67
2023-04-26T04:04:42.467Z,98337.20
2023-04-26T04:05:16.163Z,98337.83
2023-04-26T04:05:49.683Z,98338.38
2023-04-26T04:06:22.922Z,98340.06
2023-04-26T04:06:56.225Z,98342.48
2023-04-26T04:07:29.328Z,98338.77
2023-04-26T04:08:02.628Z,98343.11
2023-04-26T04:08:35.717Z,98344.71
2023-04-26T04:09:09.423Z,98343.15
2023-04-26T04:09:42.560Z,98344.28
2023-04-26T04:10:16.690Z,98346.17
2023-04-26T04:10:50.063Z,98343.44
2023-04-26T04:11:23.475Z,98345.23
2023-04-26T04:11:56.726Z,98346.40
2023-04-26T04:12:29.938Z,98347.97
2023-04-26T04:13:03.125Z,98347.29
2023-04-26T04:13:36.341Z,98346.45
2023-04-26T04:14:09.552Z,98349.25
2023-04-26T04:14:42.785Z,98348.93
2023-04-26T04:15:16.911Z,98348.02
2023-04-26T04:15:50.024Z,98350.63
2023-04-26T04:16:23.223Z,98350.78
2023-04-26T04:16:56.980Z,98351.38
2023-04-26T04:17:30.146Z,98349.65
2023-04-26T04:18:04.141Z,98352.55
2023-04-26T04:18:37.313Z,98355.48
2023-04-26T04:19:10.409Z,98353.59
2023-04-26T04:19:43.465Z,98351.41
2023-04-26T04:20:16.913Z,98353.86
2023-04-26T04:20:50.122Z,98354.05
2023-04-26T04:21:23.204Z,98353.92
2023-04-26T04:21:56.580Z,98356.75
2023-04-26T04:22:29.903Z,98355.39
2023-04-26T04:23:04.651Z,98353.86
2023-04-26T04:23:37.855Z,98356.66
2023-04-26T04:24:11.758Z,98356.66
2023-04-26T04:24:45.243Z,98359.80
2023-04-26T04:25:21.366Z,98355.78
2023-04-26T04:25:54.698Z,98358.03
2023-04-26T04:26:30.649Z,98359.63
2023-04-26T04:27:04.275Z,98355.16
2023-04-26T04:27:38.369Z,98362.34
2023-04-26T04:28:12.294Z,98361.44
2023-04-26T04:28:47.514Z,98364.73
2023-04-26T04:29:20.871Z,98362.97
2023-04-26T04:29:55.388Z,98365.84
2023-04-26T04:30:29.755Z,98369.98
2023-04-26T04:31:03.126Z,98366.55
2023-04-26T04:31:37.131Z,98365.13
2023-04-26T04:32:11.736Z,98369.98
2023-04-26T04:32:45.402Z,98371.02
2023-04-26T04:33:19.387Z,98372.59
2023-04-26T04:33:52.535Z,98372.14
2023-04-26T04:34:26.583Z,98372.19
2023-04-26T04:34:59.858Z,98374.08
2023-04-26T04:35:34.415Z,98374.11
2023-04-26T04:36:08.489Z,98378.41
2023-04-26T04:36:41.695Z,98381.63
2023-04-26T04:37:15.642Z,98382.17
2023-04-26T04:37:50.333Z,98378.63
2023-04-26T04:38:23.613Z,98380.43
2023-04-26T04:38:56.872Z,98382.39
2023-04-26T04:39:30.123Z,98384.08
2023-04-26T04:40:03.363Z,98386.43
2023-04-26T04:40:36.602Z,98386.42
2023-04-26T04:41:10.518Z,98387.09
2023-04-26T04:41:49.709Z,98387.53
2023-04-26T04:42:23.803Z,98388.14
2023-04-26T04:42:57.081Z,98385.53
2023-04-26T04:43:30.325Z,98388.01
2023-04-26T04:44:04.343Z,98386.92
2023-04-26T04:44:37.803Z,98388.37
2023-04-26T04:45:11.145Z,98388.92
2023-04-26T04:45:44.426Z,98387.16
2023-04-26T04:46:17.560Z,98390.49
2023-04-26T04:46:51.009Z,98390.27
2023-04-26T04:47:24.563Z,98391.14
2023-04-26T04:47:57.875Z,98389.17
2023-04-26T04:48:31.054Z,98388.79
2023-04-26T04:49:04.215Z,98393.00
2023-04-26T04:49:38.273Z,98392.39
2023-04-26T04:50:11.765Z,98395.23
2023-04-26T04:50:45.008Z,98393.06
2023-04-26T04:51:18.242Z,98393.91
2023-04-26T04:51:51.589Z,98396.91
2023-04-26T04:52:24.719Z,98404.15
2023-04-26T04:52:57.999Z,98399.33
2023-04-26T04:53:31.239Z,98402.95
2023-04-26T04:54:14.821Z,98404.90
2023-04-26T04:54:48.900Z,98405.37
2023-04-26T04:55:22.153Z,98402.77
2023-04-26T04:55:55.308Z,98401.36
2023-04-26T04:56:28.487Z,98403.31
2023-04-26T04:57:02.090Z,98406.93
2023-04-26T04:57:36.131Z,98407.06
2023-04-26T04:58:09.312Z,98408.59
2023-04-26T04:58:42.524Z,98410.13
2023-04-26T04:59:15.721Z,98408.20
2023-04-26T04:59:48.875Z,98407.61
2023-04-26T05:00:22.157Z,98407.73
2023-04-26T05:00:56.133Z,98406.80
2023-04-26T05:01:29.398Z,98407.64
2023-04-26T05:02:02.655Z,98407.60
2023-04-26T05:02:37.157Z,98410.18
2023-04-26T05:03:11.103Z,98407.17
2023-04-26T05:03:44.438Z,98410.11
2023-04-26T05:04:18.038Z,98407.98
2023-04-26T05:04:51.551Z,98410.73
2023-04-26T05:05:24.881Z,98412.42
2023-04-26T05:05:58.063Z,98413.46
2023-04-26T05:06:34.034Z,98411.27
2023-04-26T05:07:07.327Z,98411.40
2023-04-26T05:07:40.560Z,98411.20
2023-04-26T05:08:13.950Z,98415.18
2023-04-26T05:08:47.441Z,98410.77
2023-04-26T05:09:20.595Z,98412.45
2023-04-26T05:09:53.847Z,98412.09
2023-04-26T05:10:27.041Z,98414.86
2023-04-26T05:11:00.185Z,98418.45
2023-04-26T05:11:33.438Z,98416.71
2023-04-26T05:12:06.973Z,98419.80
2023-04-26T05:12:40.162Z,98421.27
2023-04-26T05:13:13.411Z,98419.98
2023-04-26T05:13:47.036Z,98421.27
2023-04-26T05:14:20.180Z,98421.08
2023-04-26T05:14:53.623Z,98426.06
2023-04-26T05:15:26.830Z,98422.33
2023-04-26T05:16:00.021Z,98424.35
2023-04-26T05:16:33.444Z,98421.16
2023-04-26T05:17:06.675Z,98424.73
2023-04-26T05:17:42.327Z,98421.48
2023-04-26T05:18:15.634Z,98422.29
2023-04-26T05:18:48.790Z,98424.11
2023-04-26T05:19:22.043Z,98423.00
2023-04-26T05:19:55.592Z,98417.23
2023-04-26T05:20:29.897Z,98424.05
2023-04-26T05:21:03.008Z,98422.13
2023-04-26T05:21:36.570Z,98427.19
2023-04-26T05:22:09.962Z,98424.70
2023-04-26T05:22:43.455Z,98424.45
2023-04-26T05:23:16.939Z,98427.20
2023-04-26T05:23:50.200Z,98426.96
2023-04-26T05:24:23.593Z,98433.59
2023-04-26T05:24:56.738Z,98431.98
2023-04-26T05:25:29.876Z,98434.52
2023-04-26T05:26:06.872Z,98428.91
2023-04-26T05:26:40.681Z,98429.23
2023-04-26T05:27:13.917Z,98428.75
2023-04-26T05:27:47.315Z,98436.02
2023-04-26T05:28:20.996Z,98434.85
2023-04-26T05:28:54.216Z,98434.55
2023-04-26T05:29:33.963Z,98438.48
2023-04-26T05:30:08.687Z,98436.59
2023-04-26T05:30:41.954Z,98436.77
2023-04-26T05:31:15.213Z,98439.63
2023-04-26T05:31:48.356Z,98440.71
2023-04-26T05:32:21.672Z,98444.98
2023-04-26T05:32:57.224Z,98445.69
2023-04-26T05:33:31.195Z,98446.96
2023-04-26T05:34:04.509Z,98440.33
2023-04-26T05:34:38.938Z,98444.69
2023-04-26T05:35:12.370Z,98447.77
2023-04-26T05:35:46.207Z,98444.31
2023-04-26T05:36:19.931Z,98449.20
2023-04-26T05:36:53.386Z,98447.31
2023-04-26T05:37:26.812Z,98450.85
2023-04-26T05:38:00.280Z,98451.65
2023-04-26T05:38:33.499Z,98448.03
2023-04-26T05:39:07.557Z,98449.92
2023-04-26T05:39:40.743Z,98453.53
2023-04-26T05:40:14.145Z,98451.52
2023-04-26T05:40:48.549Z,98452.24
2023-04-26T05:41:21.672Z,98452.64
2023-04-26T05:41:54.776Z,98452.99
2023-04-26T05:42:27.859Z,98451.27
2023-04-26T05:43:00.944Z,98450.58
2023-04-26T05:43:34.668Z,98448.55
2023-04-26T05:44:07.742Z,98449.83
2023-04-26T05:44:41.047Z,98450.75
2023-04-26T05:45:14.234Z,98451.92
2023-04-26T05:45:54.066Z,98453.58
2023-04-26T05:46:27.339Z,98453.45
2023-04-26T05:47:00.534Z,98456.98
2023-04-26T05:47:33.760Z,98455.80
2023-04-26T05:48:07.097Z,98456.23
2023-04-26T05:48:40.284Z,98457.67
2023-04-26T05:49:13.464Z,98457.88
2023-04-26T05:49:46.726Z,98459.40
2023-04-26T05:50:19.886Z,98460.53
2023-04-26T05:50:53.325Z,98458.58
2023-04-26T05:51:26.460Z,98458.58
2023-04-26T05:52:01.099Z,98460.96
2023-04-26T05:52:34.677Z,98461.09
2023-04-26T05:53:07.827Z,98463.46
2023-04-26T05:53:42.018Z,98460.83
2023-04-26T05:54:15.287Z,98463.04
2023-04-26T05:54:48.452Z,98463.66
2023-04-26T05:55:21.793Z,98460.16
2023-04-26T05:55:55.038Z,98460.04
2023-04-26T05:56:29.399Z,98461.83
2023-04-26T05:57:02.637Z,98463.90
2023-04-26T05:57:35.983Z,98463.09
2023-04-26T05:58:09.667Z,98461.52
2023-04-26T05:58:42.963Z,98459.55
2023-04-26T05:59:16.162Z,98463.44
2023-04-26T05:59:49.387Z,98460.79
2023-04-26T06:00:23.813Z,98463.27
2023-04-26T06:00:56.964Z,98464.92
2023-04-26T06:01:30.238Z,98465.71
2023-04-26T06:02:05.105Z,98466.98
2023-04-26T06:02:38.559Z,98467.52
2023-04-26T06:03:13.057Z,98469.80
2023-04-26T06:03:47.091Z,98465.75
2023-04-26T06:04:20.615Z,98467.98
2023-04-26T06:04:54.505Z,98466.86
2023-04-26T06:05:28.438Z,98468.63
2023-04-26T06:06:02.034Z,98468.92
2023-04-26T06:06:35.354Z,98464.59
2023-04-26T06:07:08.552Z,98469.09
2023-04-26T06:07:41.787Z,98470.80
2023-04-26T06:08:15.006Z,98471.48
2023-04-26T06:08:48.338Z,98467.26
2023-04-26T06:09:21.619Z,98465.69
2023-04-26T06:09:54.725Z,98470.16
2023-04-26T06:10:27.951Z,98468.91
2023-04-26T06:11:01.115Z,98468.73
2023-04-26T06:11:34.352Z,98465.08
2023-04-26T06:12:07.952Z,98469.92
2023-04-26T06:12:41.644Z,98466.88
2023-04-26T06:13:14.814Z,98469.58
2023-04-26T06:13:48.072Z,98469.63
2023-04-26T06:14:30.068Z,98469.12
2023-04-26T06:15:04.066Z,98471.92
2023-04-26T06:15:37.985Z,98471.20
2023-04-26T06:16:11.487Z,98467.74
2023-04-26T06:16:44.699Z,98472.60
2023-04-26T06:17:17.912Z,98468.23
2023-04-26T06:17:51.192Z,98470.20
2023-04-26T06:18:24.409Z,98466.97
2023-04-26T06:18:57.550Z,98471.29
2023-04-26T06:19:30.753Z,98468.83
2023-04-26T06:20:05.306Z,98473.80
2023-04-26T06:20:38.507Z,98470.66
2023-04-26T06:21:11.665Z,98473.16
2023-04-26T06:21:44.751Z,98473.77
2023-04-26T06:22:17.883Z,98475.52
2023-04-26T06:22:51.290Z,98476.61
2023-04-26T06:23:24.492Z,98479.58
2023-04-26T06:23:57.697Z,98476.74
2023-04-26T06:24:30.908Z,98478.54
2023-04-26T06:25:07.535Z,98474.04
2023-04-26T06:25:44.941Z,98476.30
2023-04-26T06:26:18.118Z,98481.38
2023-04-26T06:26:51.646Z,98481.80
2023-04-26T06:27:25.000Z,98480.20
2023-04-26T06:27:58.995Z,98482.45
2023-04-26T06:28:32.556Z,98484.27
2023-04-26T06:29:06.199Z,98481.95
2023-04-26T06:29:39.474Z,98479.89
2023-04-26T06:30:12.913Z,98479.11
2023-04-26T06:30:46.483Z,98484.33
2023-04-26T06:31:21.965Z,98482.40
2023-04-26T06:31:55.251Z,98484.83
2023-04-26T06:32:28.624Z,98484.59
2023-04-26T06:33:02.754Z,98485.89
2023-04-26T06:33:36.036Z,98483.77
2023-04-26T06:34:09.866Z,98482.75
2023-04-26T06:34:45.728Z,98484.35
2023-04-26T06:35:18.914Z,98488.07